createdAt,value
2022-12-11T00:02:20.526Z,9.87
2022-12-11T00:04:47.170Z,9.37
2022-12-11T00:07:13.704Z,8.90
2022-12-11T00:09:40.390Z,8.63
2022-12-11T00:12:07.517Z,9.13
2022-12-11T00:14:34.175Z,8.23
2022-12-11T00:17:00.739Z,7.97
2022-12-11T00:19:30.163Z,9.80
2022-12-11T00:21:59.677Z,8.77
2022-12-11T00:24:28.279Z,8.83
2022-12-11T00:26:55.101Z,9.13
2022-12-11T00:29:21.629Z,10.20
2022-12-11T00:31:48.327Z,11.33
2022-12-11T00:34:14.907Z,10.57
2022-12-11T00:36:41.461Z,10.60
2022-12-11T00:39:08.058Z,10.73
2022-12-11T00:41:34.712Z,10.90
2022-12-11T00:44:01.362Z,10.90
2022-12-11T00:46:31.036Z,10.33
2022-12-11T00:49:00.609Z,10.73
2022-12-11T00:51:29.862Z,11.27
2022-12-11T00:53:56.369Z,9.90
2022-12-11T00:56:23.538Z,10.17
2022-12-11T00:58:50.255Z,10.37
2022-12-11T01:01:23.744Z,9.73
2022-12-11T01:03:52.744Z,10.00
2022-12-11T01:06:22.581Z,10.33
2022-12-11T01:09:09.532Z,10.40
2022-12-11T01:11:36.281Z,9.40
2022-12-11T01:14:03.366Z,9.80
2022-12-11T01:16:32.983Z,10.37
2022-12-11T01:19:03.333Z,10.43
2022-12-11T01:21:34.140Z,10.30
2022-12-11T01:24:03.484Z,9.87
2022-12-11T01:26:32.977Z,11.13
2022-12-11T01:29:02.296Z,10.33
2022-12-11T01:31:34.327Z,10.00
2022-12-11T01:34:04.425Z,9.60
2022-12-11T01:36:34.112Z,8.43
2022-12-11T01:39:02.678Z,9.33
2022-12-11T01:41:29.223Z,9.17
2022-12-11T01:44:15.918Z,10.17
2022-12-11T01:46:43.070Z,8.93
2022-12-11T01:49:13.146Z,8.20
2022-12-11T01:51:45.962Z,9.47
2022-12-11T01:54:14.890Z,10.37
2022-12-11T01:56:43.847Z,10.80
2022-12-11T01:59:11.172Z,9.87
2022-12-11T02:01:46.534Z,9.73
2022-12-11T02:04:14.456Z,9.93
2022-12-11T02:06:50.378Z,9.93
2022-12-11T02:09:21.696Z,8.93
2022-12-11T02:11:57.264Z,9.10
2022-12-11T02:14:48.886Z,9.57
2022-12-11T02:17:59.889Z,9.27
2022-12-11T02:20:41.932Z,9.03
2022-12-11T02:23:29.799Z,9.60
2022-12-11T02:26:38.468Z,8.93
2022-12-11T02:29:17.934Z,9.73
2022-12-11T02:32:22.938Z,9.53
2022-12-11T02:34:58.526Z,8.47
2022-12-11T02:37:29.890Z,9.50
2022-12-11T02:39:57.361Z,9.30
2022-12-11T02:42:28.655Z,9.23
2022-12-11T02:44:57.214Z,9.33
2022-12-11T02:47:26.783Z,9.10
2022-12-11T02:49:56.701Z,8.93
2022-12-11T02:52:25.153Z,10.07
2022-12-11T02:54:55.148Z,8.37
2022-12-11T02:57:31.710Z,8.70
2022-12-11T02:59:58.531Z,7.83
2022-12-11T03:02:25.193Z,7.77
2022-12-11T03:04:51.985Z,7.70
2022-12-11T03:07:24.594Z,7.07
2022-12-11T03:09:52.118Z,8.03
2022-12-11T03:12:30.472Z,6.80
2022-12-11T03:15:00.703Z,6.93
2022-12-11T03:17:48.652Z,8.40
2022-12-11T03:20:18.102Z,7.30
2022-12-11T03:22:57.683Z,7.47
2022-12-11T03:25:39.023Z,9.00
2022-12-11T03:28:19.397Z,7.17
2022-12-11T03:30:49.771Z,7.70
2022-12-11T03:33:23.548Z,8.07
2022-12-11T03:35:56.774Z,8.17
2022-12-11T03:38:28.141Z,7.77
2022-12-11T03:40:59.242Z,6.97
2022-12-11T03:43:28.605Z,7.90
2022-12-11T03:45:55.605Z,8.37
2022-12-11T03:48:25.412Z,7.73
2022-12-11T03:50:52.424Z,7.97
2022-12-11T03:53:20.445Z,7.53
2022-12-11T03:55:49.798Z,7.90
2022-12-11T03:58:16.342Z,8.20
2022-12-11T04:00:43.058Z,8.77
2022-12-11T04:03:16.058Z,10.10
2022-12-11T04:05:45.697Z,8.70
2022-12-11T04:08:13.176Z,8.23
2022-12-11T04:10:43.643Z,8.50
2022-12-11T04:13:10.809Z,7.73
2022-12-11T04:15:41.496Z,8.43
2022-12-11T04:18:26.971Z,8.23
2022-12-11T04:21:13.216Z,7.80
2022-12-11T04:24:01.235Z,8.30
2022-12-11T04:26:28.019Z,8.53
2022-12-11T04:28:54.548Z,8.27
2022-12-11T04:31:22.532Z,8.87
2022-12-11T04:33:49.361Z,8.47
2022-12-11T04:36:15.923Z,8.17
2022-12-11T04:38:42.425Z,8.87
2022-12-11T04:41:13.998Z,8.73
2022-12-11T04:43:46.496Z,7.50
2022-12-11T04:46:19.539Z,9.07
2022-12-11T04:48:46.903Z,8.77
2022-12-11T04:51:14.294Z,8.07
2022-12-11T04:53:43.750Z,8.77
2022-12-11T04:56:13.777Z,8.97
2022-12-11T04:58:50.264Z,7.93
2022-12-11T05:01:21.560Z,7.83
2022-12-11T05:03:48.387Z,8.63
2022-12-11T05:06:15.439Z,8.63
2022-12-11T05:08:45.569Z,8.50
2022-12-11T05:11:16.301Z,7.80
2022-12-11T05:13:46.317Z,7.70
2022-12-11T05:16:17.544Z,8.47
2022-12-11T05:18:44.510Z,7.83
2022-12-11T05:21:15.672Z,7.67
2022-12-11T05:23:43.974Z,9.03
2022-12-11T05:26:19.715Z,5.87
2022-12-11T05:28:47.023Z,7.97
2022-12-11T05:31:19.161Z,7.33
2022-12-11T05:33:46.903Z,7.30
2022-12-11T05:36:23.288Z,6.77
2022-12-11T05:38:51.070Z,7.07
2022-12-11T05:41:20.329Z,6.27
2022-12-11T05:43:46.936Z,8.40
2022-12-11T05:46:19.099Z,7.27
2022-12-11T05:48:51.464Z,6.97
2022-12-11T05:51:18.954Z,7.70
2022-12-11T05:53:50.576Z,6.50
2022-12-11T05:56:22.909Z,6.17
2022-12-11T05:58:50.481Z,7.33
2022-12-11T06:01:20.719Z,6.97
2022-12-11T06:03:47.727Z,7.30
2022-12-11T06:06:17.214Z,6.93
2022-12-11T06:08:46.412Z,6.67
2022-12-11T06:11:24.186Z,6.67
2022-12-11T06:13:51.492Z,5.67
2022-12-11T06:16:18.104Z,6.30
2022-12-11T06:18:48.601Z,8.07
2022-12-11T06:21:18.188Z,7.50
2022-12-11T06:23:49.706Z,6.00
2022-12-11T06:26:19.712Z,6.30
2022-12-11T06:28:49.979Z,6.63
2022-12-11T06:31:20.266Z,6.87
2022-12-11T06:33:48.916Z,6.87
2022-12-11T06:36:22.253Z,6.50
2022-12-11T06:38:49.655Z,7.40
2022-12-11T06:41:18.689Z,8.50
2022-12-11T06:43:45.416Z,8.67
2022-12-11T06:46:14.664Z,8.97
2022-12-11T06:48:42.317Z,7.60
2022-12-11T06:51:11.093Z,7.60
2022-12-11T06:53:37.872Z,7.00
2022-12-11T06:56:07.059Z,6.47
2022-12-11T06:58:35.624Z,7.43
2022-12-11T07:01:03.183Z,9.13
2022-12-11T07:03:29.888Z,7.57
2022-12-11T07:06:02.668Z,7.07
2022-12-11T07:08:29.490Z,6.13
2022-12-11T07:10:55.981Z,6.20
2022-12-11T07:13:22.519Z,6.20
2022-12-11T07:15:52.075Z,6.40
2022-12-11T07:18:20.493Z,5.63
2022-12-11T07:20:46.983Z,5.87
2022-12-11T07:23:13.522Z,5.73
2022-12-11T07:25:40.027Z,6.97
2022-12-11T07:28:06.542Z,5.70
2022-12-11T07:30:33.120Z,6.20
2022-12-11T07:32:59.717Z,7.23
2022-12-11T07:35:26.284Z,7.60
2022-12-11T07:37:52.815Z,7.37
2022-12-11T07:40:21.416Z,7.27
2022-12-11T07:42:48.145Z,8.07
2022-12-11T07:45:14.761Z,7.40
2022-12-11T07:47:41.255Z,6.67
2022-12-11T07:50:08.094Z,6.57
2022-12-11T07:52:35.018Z,6.77
2022-12-11T07:55:01.651Z,6.37
2022-12-11T07:57:29.168Z,5.77
2022-12-11T07:59:55.695Z,6.97
2022-12-11T08:02:25.035Z,6.13
2022-12-11T08:04:55.079Z,7.30
2022-12-11T08:07:24.738Z,6.00
2022-12-11T08:10:00.314Z,6.17
2022-12-11T08:12:26.888Z,6.20
2022-12-11T08:14:56.669Z,5.23
2022-12-11T08:17:29.609Z,5.80
2022-12-11T08:19:58.403Z,6.90
2022-12-11T08:22:24.928Z,6.00
2022-12-11T08:24:54.451Z,4.70
2022-12-11T08:27:23.068Z,5.90
2022-12-11T08:29:49.559Z,5.43
2022-12-11T08:32:17.235Z,5.50
2022-12-11T08:34:44.269Z,4.77
2022-12-11T08:37:10.783Z,5.43
2022-12-11T08:39:37.475Z,5.90
2022-12-11T08:42:04.055Z,4.70
2022-12-11T08:44:31.074Z,5.27
2022-12-11T08:46:57.606Z,4.80
2022-12-11T08:49:27.514Z,5.13
2022-12-11T08:51:56.446Z,5.10
2022-12-11T08:54:25.837Z,5.47
2022-12-11T08:56:58.099Z,5.67
2022-12-11T08:59:25.803Z,5.33
2022-12-11T09:01:56.184Z,4.77
2022-12-11T09:04:25.481Z,5.53
2022-12-11T09:06:54.969Z,4.80
2022-12-11T09:09:23.475Z,5.03
2022-12-11T09:11:50.431Z,5.27
2022-12-11T09:14:17.725Z,5.70
2022-12-11T09:16:44.236Z,5.13
2022-12-11T09:19:16.480Z,4.63
2022-12-11T09:21:44.176Z,5.30
2022-12-11T09:24:12.296Z,4.37
2022-12-11T09:26:39.266Z,4.33
2022-12-11T09:29:06.942Z,5.07
2022-12-11T09:31:35.645Z,4.23
2022-12-11T09:34:05.449Z,4.03
2022-12-11T09:36:32.877Z,4.87
2022-12-11T09:39:05.056Z,4.47
2022-12-11T09:41:34.550Z,4.83
2022-12-11T09:44:19.850Z,4.70
2022-12-11T09:46:47.350Z,4.53
2022-12-11T09:49:44.104Z,5.47
2022-12-11T09:52:23.238Z,4.87
2022-12-11T09:55:01.808Z,4.70
2022-12-11T09:57:28.273Z,4.73
2022-12-11T10:00:13.976Z,4.67
2022-12-11T10:02:54.167Z,3.80
2022-12-11T10:05:37.775Z,4.13
2022-12-11T10:08:19.323Z,4.80
2022-12-11T10:11:26.771Z,4.37
2022-12-11T10:14:25.476Z,4.57
2022-12-11T10:17:05.609Z,3.93
2022-12-11T10:19:33.192Z,4.97
2022-12-11T10:22:01.331Z,4.27
2022-12-11T10:27:40.943Z,4.57
2022-12-11T10:30:13.307Z,4.27
2022-12-11T10:33:18.533Z,4.37
2022-12-11T10:35:57.245Z,4.80
2022-12-11T10:38:33.274Z,4.73
2022-12-11T10:41:05.606Z,4.40
2022-12-11T10:43:46.109Z,5.00
2022-12-11T10:46:17.461Z,4.13
2022-12-11T10:48:55.475Z,4.50
2022-12-11T10:51:33.330Z,3.80
2022-12-11T10:54:17.569Z,4.80
2022-12-11T10:56:48.408Z,4.47
2022-12-11T10:59:30.783Z,4.20
2022-12-11T11:01:57.887Z,4.83
2022-12-11T11:04:31.805Z,5.00
2022-12-11T11:07:18.958Z,4.40
2022-12-11T11:09:46.340Z,4.53
2022-12-11T11:12:28.114Z,4.77
2022-12-11T11:15:13.150Z,4.63
2022-12-11T11:17:56.409Z,5.10
2022-12-11T11:20:29.754Z,4.93
2022-12-11T11:23:01.526Z,4.47
2022-12-11T11:25:31.356Z,4.50
2022-12-11T11:28:02.698Z,4.57
2022-12-11T11:30:40.007Z,4.13
2022-12-11T11:33:24.595Z,4.60
2022-12-11T11:35:57.552Z,4.27
2022-12-11T11:38:32.111Z,5.00
2022-12-11T11:41:18.636Z,4.93
2022-12-11T11:43:52.836Z,4.70
2022-12-11T11:46:29.592Z,4.30
2022-12-11T11:49:03.801Z,4.87
2022-12-11T11:51:39.033Z,4.37
2022-12-11T11:54:28.391Z,4.60
2022-12-11T11:56:57.390Z,4.50
2022-12-11T11:59:43.121Z,4.67
2022-12-11T12:02:17.760Z,4.90
2022-12-11T12:04:46.152Z,4.87
2022-12-11T12:07:42.214Z,4.80
2022-12-11T12:10:26.633Z,4.63
2022-12-11T12:13:44.332Z,4.53
2022-12-11T12:16:01.581Z,4.50
2022-12-11T12:18:34.983Z,4.83
2022-12-11T12:21:26.445Z,4.17
2022-12-11T12:24:44.160Z,4.07
2022-12-11T12:27:51.574Z,4.30
2022-12-11T12:30:22.987Z,3.70
2022-12-11T12:33:27.908Z,4.07
2022-12-11T12:36:19.809Z,3.90
2022-12-11T12:39:00.973Z,3.90
2022-12-11T12:41:33.483Z,3.90
2022-12-11T12:44:03.870Z,4.70
2022-12-11T12:46:45.682Z,4.93
2022-12-11T12:49:17.621Z,4.60
2022-12-11T12:51:45.757Z,4.43
2022-12-11T12:54:17.899Z,3.93
2022-12-11T12:56:47.062Z,4.80
2022-12-11T12:59:40.265Z,5.10
2022-12-11T13:02:16.954Z,3.90
2022-12-11T13:04:56.483Z,4.77
2022-12-11T13:07:32.902Z,4.70
2022-12-11T13:10:36.399Z,4.63
2022-12-11T13:13:05.512Z,5.97
2022-12-11T13:15:40.970Z,5.70
2022-12-11T13:18:32.617Z,4.93
2022-12-11T13:20:59.573Z,4.30
2022-12-11T13:23:34.259Z,4.43
2022-12-11T13:26:04.998Z,5.20
2022-12-11T13:28:39.508Z,4.63
2022-12-11T13:31:15.628Z,4.20
2022-12-11T13:34:23.215Z,4.97
2022-12-11T13:36:54.181Z,4.00
2022-12-11T13:39:30.618Z,4.93
2022-12-11T13:42:05.863Z,4.60
2022-12-11T13:44:42.446Z,4.80
2022-12-11T13:47:15.593Z,4.80
2022-12-11T13:49:46.139Z,6.00
2022-12-11T13:52:24.050Z,5.33
2022-12-11T13:54:59.705Z,5.33
2022-12-11T13:57:28.377Z,4.80
2022-12-11T13:59:59.492Z,5.13
2022-12-11T14:02:32.499Z,5.03
2022-12-11T14:05:02.995Z,5.40
2022-12-11T14:07:37.983Z,6.10
2022-12-11T14:10:22.014Z,4.80
2022-12-11T14:12:59.656Z,5.07
2022-12-11T14:15:28.165Z,4.20
2022-12-11T14:17:56.887Z,4.90
2022-12-11T14:20:32.422Z,5.20
2022-12-11T14:23:17.152Z,4.97
2022-12-11T14:26:11.913Z,4.47
2022-12-11T14:28:42.123Z,4.63
2022-12-11T14:31:12.202Z,3.80
2022-12-11T14:33:43.957Z,4.97
2022-12-11T14:36:11.322Z,5.20
2022-12-11T14:38:47.787Z,5.50
2022-12-11T14:41:23.148Z,4.73
2022-12-11T14:43:56.518Z,4.50
2022-12-11T14:46:38.397Z,4.73
2022-12-11T14:49:28.498Z,5.63
2022-12-11T14:51:59.274Z,4.83
2022-12-11T14:54:34.376Z,6.07
2022-12-11T14:57:06.236Z,5.83
2022-12-11T14:59:41.197Z,4.80
2022-12-11T15:02:30.407Z,5.37
2022-12-11T15:05:19.736Z,6.23
2022-12-11T15:07:58.288Z,6.77
2022-12-11T15:10:36.147Z,6.73
2022-12-11T15:13:06.000Z,6.30
2022-12-11T15:15:39.330Z,6.20
2022-12-11T15:18:14.380Z,6.20
2022-12-11T15:20:41.353Z,6.93
2022-12-11T15:23:08.490Z,6.20
2022-12-11T15:25:35.393Z,6.07
2022-12-11T15:28:02.341Z,7.07
2022-12-11T15:30:35.166Z,7.10
2022-12-11T15:33:10.217Z,6.27
2022-12-11T15:35:38.402Z,5.97
2022-12-11T15:38:05.553Z,5.80
2022-12-11T15:40:32.393Z,6.20
2022-12-11T15:43:03.249Z,5.83
2022-12-11T15:45:30.874Z,6.07
2022-12-11T15:48:01.174Z,6.20
2022-12-11T15:50:30.344Z,6.53
2022-12-11T15:52:59.646Z,6.50
2022-12-11T15:55:35.094Z,8.67
2022-12-11T15:58:09.316Z,9.00
2022-12-11T16:00:35.829Z,7.67
2022-12-11T16:03:02.390Z,7.60
2022-12-11T16:05:32.009Z,7.60
2022-12-11T16:08:01.503Z,7.23
2022-12-11T16:10:29.376Z,7.60
2022-12-11T16:12:59.527Z,7.00
2022-12-11T16:15:29.822Z,8.10
2022-12-11T16:18:08.665Z,7.93
2022-12-11T16:20:36.975Z,7.20
2022-12-11T16:23:04.477Z,6.67
2022-12-11T16:25:32.705Z,7.67
2022-12-11T16:28:02.404Z,7.83
2022-12-11T16:30:31.792Z,7.70
2022-12-11T16:33:00.907Z,8.97
2022-12-11T16:35:29.975Z,8.23
2022-12-11T16:37:59.217Z,8.40
2022-12-11T16:40:25.808Z,8.23
2022-12-11T16:42:52.767Z,8.93
2022-12-11T16:45:23.137Z,8.30
2022-12-11T16:47:49.804Z,10.17
2022-12-11T16:50:17.447Z,9.17
2022-12-11T16:52:45.021Z,9.97
2022-12-11T16:55:12.815Z,9.83
2022-12-11T16:57:39.616Z,8.37
2022-12-11T17:00:09.091Z,10.83
2022-12-11T17:02:36.367Z,8.97
2022-12-11T17:05:03.041Z,10.33
2022-12-11T17:07:33.272Z,10.77
2022-12-11T17:10:02.854Z,11.00
2022-12-11T17:12:32.293Z,11.43
2022-12-11T17:15:02.075Z,11.23
2022-12-11T17:17:31.452Z,11.60
2022-12-11T17:20:01.269Z,11.47
2022-12-11T17:22:30.821Z,10.63
2022-12-11T17:25:02.094Z,11.20
2022-12-11T17:27:31.450Z,11.53
2022-12-11T17:29:59.791Z,10.57
2022-12-11T17:32:31.000Z,10.80
2022-12-11T17:35:00.786Z,13.23
2022-12-11T17:37:29.376Z,12.47
2022-12-11T17:39:55.966Z,11.27
2022-12-11T17:42:22.486Z,13.70
2022-12-11T17:44:48.975Z,12.93
2022-12-11T17:47:15.495Z,12.03
2022-12-11T17:49:42.047Z,12.53
2022-12-11T17:52:08.694Z,11.57
2022-12-11T17:54:35.453Z,12.30
2022-12-11T17:57:03.092Z,12.80
2022-12-11T17:59:29.704Z,18.00
2022-12-11T18:01:56.300Z,21.17
2022-12-11T18:04:23.948Z,14.83
2022-12-11T18:06:50.451Z,11.67
2022-12-11T18:09:17.013Z,12.93
2022-12-11T18:11:43.568Z,11.47
2022-12-11T18:14:17.170Z,11.83
2022-12-11T18:16:44.260Z,11.13
2022-12-11T18:19:10.949Z,11.23
2022-12-11T18:21:41.287Z,11.93
2022-12-11T18:24:08.829Z,11.77
2022-12-11T18:26:35.904Z,12.57
2022-12-11T18:29:02.459Z,11.53
2022-12-11T18:31:31.603Z,11.10
2022-12-11T18:33:59.709Z,12.53
2022-12-11T18:36:29.022Z,10.77
2022-12-11T18:38:55.550Z,12.67
2022-12-11T18:41:37.257Z,13.03
2022-12-11T18:44:16.711Z,11.23
2022-12-11T18:46:52.133Z,11.77
2022-12-11T18:49:19.176Z,12.00
2022-12-11T18:51:45.675Z,14.10
2022-12-11T18:54:12.634Z,15.23
2022-12-11T18:56:50.798Z,11.53
2022-12-11T18:59:31.192Z,10.90
2022-12-11T19:02:00.806Z,11.60
2022-12-11T19:04:31.264Z,10.97
2022-12-11T19:07:02.459Z,12.33
2022-12-11T19:09:36.910Z,10.90
2022-12-11T19:12:04.926Z,11.20
2022-12-11T19:14:31.481Z,12.57
2022-12-11T19:17:01.057Z,11.97
2022-12-11T19:19:30.704Z,11.27
2022-12-11T19:21:59.628Z,11.53
2022-12-11T19:24:26.111Z,10.97
2022-12-11T19:26:52.729Z,10.57
2022-12-11T19:29:23.577Z,10.50
2022-12-11T19:31:50.747Z,10.93
2022-12-11T19:34:18.072Z,10.80
2022-12-11T19:36:44.766Z,10.87
2022-12-11T19:39:13.360Z,10.40
2022-12-11T19:41:41.345Z,10.17
2022-12-11T19:44:08.857Z,11.80
2022-12-11T19:46:35.942Z,10.17
2022-12-11T19:49:21.569Z,11.83
2022-12-11T19:52:04.650Z,11.30
2022-12-11T19:54:32.435Z,11.27
2022-12-11T19:56:59.684Z,11.33
2022-12-11T19:59:26.189Z,11.60
2022-12-11T20:01:53.489Z,9.70
2022-12-11T20:04:23.516Z,11.93
2022-12-11T20:06:53.096Z,11.67
2022-12-11T20:09:19.706Z,10.13
2022-12-11T20:11:47.821Z,12.30
2022-12-11T20:14:19.618Z,12.30
2022-12-11T20:17:09.762Z,13.70
2022-12-11T20:19:32.763Z,14.50
2022-12-11T20:22:00.143Z,14.73
2022-12-11T20:24:29.406Z,11.77
2022-12-11T20:27:00.273Z,10.13
2022-12-11T20:29:29.620Z,12.27
2022-12-11T20:31:56.990Z,11.97
2022-12-11T20:34:23.832Z,10.67
2022-12-11T20:36:52.345Z,11.00
2022-12-11T20:39:18.828Z,11.17
2022-12-11T20:41:45.356Z,14.03
2022-12-11T20:44:11.888Z,12.83
2022-12-11T20:46:38.372Z,12.67
2022-12-11T20:49:05.010Z,13.23
2022-12-11T20:51:32.758Z,12.57
2022-12-11T20:54:02.149Z,12.23
2022-12-11T20:56:32.070Z,13.57
2022-12-11T20:59:01.929Z,12.43
2022-12-11T21:01:33.059Z,11.30
2022-12-11T21:04:00.059Z,11.80
2022-12-11T21:06:31.334Z,12.70
2022-12-11T21:09:00.780Z,12.10
2022-12-11T21:11:30.479Z,12.40
2022-12-11T21:13:59.928Z,20.80
2022-12-11T21:16:30.239Z,14.57
2022-12-11T21:19:01.617Z,12.70
2022-12-11T21:21:32.075Z,13.03
2022-12-11T21:24:01.341Z,12.63
2022-12-11T21:26:30.816Z,13.27
2022-12-11T21:28:59.643Z,12.33
2022-12-11T21:31:28.627Z,12.67
2022-12-11T21:33:55.215Z,11.80
2022-12-11T21:36:21.737Z,11.33
2022-12-11T21:38:48.890Z,12.87
2022-12-11T21:41:22.351Z,13.03
2022-12-11T21:46:38.063Z,12.93
2022-12-11T21:49:04.779Z,13.27
2022-12-11T21:51:40.264Z,12.90
2022-12-11T21:54:13.378Z,14.07
2022-12-11T21:56:40.705Z,14.10
2022-12-11T21:59:07.358Z,15.03
2022-12-11T22:01:40.924Z,15.93
2022-12-11T22:04:09.264Z,15.90
2022-12-11T22:06:36.366Z,16.33
2022-12-11T22:09:03.096Z,13.97
2022-12-11T22:11:32.509Z,15.70
2022-12-11T22:13:59.337Z,15.03
2022-12-11T22:16:25.929Z,15.43
2022-12-11T22:18:52.695Z,15.33
2022-12-11T22:21:19.858Z,15.67
2022-12-11T22:23:46.785Z,14.57
2022-12-11T22:26:20.197Z,12.97
2022-12-11T22:28:47.178Z,11.83
2022-12-11T22:31:16.677Z,12.17
2022-12-11T22:33:43.594Z,13.53
2022-12-11T22:36:10.920Z,13.23
2022-12-11T22:38:37.515Z,13.70
2022-12-11T22:41:21.898Z,13.27
2022-12-11T22:43:48.861Z,13.13
2022-12-11T22:46:16.740Z,13.03
2022-12-11T22:48:43.260Z,13.93
2022-12-11T22:51:10.335Z,13.90
2022-12-11T22:53:36.876Z,13.20
2022-12-11T22:56:08.156Z,17.37
2022-12-11T22:58:35.214Z,17.67
2022-12-11T23:01:02.612Z,16.57
2022-12-11T23:03:31.263Z,18.00
2022-12-11T23:06:01.979Z,17.17
2022-12-11T23:08:32.135Z,16.27
2022-12-11T23:11:01.267Z,16.93
2022-12-11T23:13:27.773Z,17.70
2022-12-11T23:15:54.289Z,16.87
2022-12-11T23:18:20.801Z,16.37
2022-12-11T23:20:49.446Z,17.00
2022-12-11T23:23:16.042Z,16.80
2022-12-11T23:25:42.533Z,17.17
2022-12-11T23:28:09.032Z,17.43
2022-12-11T23:30:35.713Z,15.50
2022-12-11T23:33:02.207Z,15.57
2022-12-11T23:35:32.890Z,14.77
2022-12-11T23:38:01.781Z,15.23
2022-12-11T23:40:28.317Z,15.90
2022-12-11T23:42:54.806Z,15.73
2022-12-11T23:45:21.339Z,14.10
2022-12-11T23:47:47.861Z,14.87
2022-12-11T23:50:14.462Z,15.60
2022-12-11T23:52:40.993Z,14.40
2022-12-11T23:55:08.393Z,14.13
2022-12-11T23:57:35.438Z,15.23
